sensor_id;sensor_type;location;lat;lon;timestamp;P1;durP1;ratioP1;P2;durP2;ratioP2
62056;SDS011;48016;50.284;18.860;2022-11-06T00:00:53;23.40;;;9.40;;
62056;SDS011;48016;50.284;18.860;2022-11-06T00:03:22;19.10;;;9.40;;
62056;SDS011;48016;50.284;18.860;2022-11-06T00:05:49;18.40;;;10.20;;
62056;SDS011;48016;50.284;18.860;2022-11-06T00:11:07;19.00;;;9.30;;
62056;SDS011;48016;50.284;18.860;2022-11-06T00:13:36;18.60;;;9.70;;
62056;SDS011;48016;50.284;18.860;2022-11-06T00:16:04;17.00;;;9.50;;
62056;SDS011;48016;50.284;18.860;2022-11-06T00:18:33;18.20;;;10.00;;
62056;SDS011;48016;50.284;18.860;2022-11-06T00:21:11;17.40;;;10.30;;
62056;SDS011;48016;50.284;18.860;2022-11-06T00:23:40;22.60;;;11.70;;
62056;SDS011;48016;50.284;18.860;2022-11-06T00:28:35;19.10;;;11.20;;
62056;SDS011;48016;50.284;18.860;2022-11-06T00:31:06;19.70;;;9.80;;
62056;SDS011;48016;50.284;18.860;2022-11-06T00:33:35;21.50;;;10.80;;
62056;SDS011;48016;50.284;18.860;2022-11-06T00:36:02;20.20;;;10.50;;
62056;SDS011;48016;50.284;18.860;2022-11-06T00:38:30;18.10;;;10.30;;
62056;SDS011;48016;50.284;18.860;2022-11-06T00:41:01;23.20;;;10.60;;
62056;SDS011;48016;50.284;18.860;2022-11-06T00:43:29;21.10;;;10.20;;
62056;SDS011;48016;50.284;18.860;2022-11-06T00:48:33;23.40;;;9.50;;
62056;SDS011;48016;50.284;18.860;2022-11-06T00:53:35;19.70;;;9.80;;
62056;SDS011;48016;50.284;18.860;2022-11-06T00:56:06;15.70;;;9.50;;
62056;SDS011;48016;50.284;18.860;2022-11-06T00:58:35;23.30;;;10.50;;
62056;SDS011;48016;50.284;18.860;2022-11-06T01:01:09;19.00;;;9.90;;
62056;SDS011;48016;50.284;18.860;2022-11-06T01:03:38;20.40;;;10.00;;
62056;SDS011;48016;50.284;18.860;2022-11-06T01:06:10;22.70;;;10.50;;
62056;SDS011;48016;50.284;18.860;2022-11-06T01:08:38;20.40;;;9.70;;
62056;SDS011;48016;50.284;18.860;2022-11-06T01:11:15;18.20;;;10.50;;
62056;SDS011;48016;50.284;18.860;2022-11-06T01:13:44;19.30;;;10.00;;
62056;SDS011;48016;50.284;18.860;2022-11-06T01:16:14;24.50;;;10.20;;
62056;SDS011;48016;50.284;18.860;2022-11-06T01:18:42;16.90;;;10.20;;
62056;SDS011;48016;50.284;18.860;2022-11-06T01:21:11;16.70;;;9.90;;
62056;SDS011;48016;50.284;18.860;2022-11-06T01:23:40;18.90;;;10.20;;
62056;SDS011;48016;50.284;18.860;2022-11-06T01:26:10;21.90;;;10.20;;
62056;SDS011;48016;50.284;18.860;2022-11-06T01:28:38;18.50;;;10.50;;
62056;SDS011;48016;50.284;18.860;2022-11-06T01:31:11;21.40;;;10.80;;
62056;SDS011;48016;50.284;18.860;2022-11-06T01:33:40;25.90;;;12.00;;
62056;SDS011;48016;50.284;18.860;2022-11-06T01:36:09;23.60;;;10.70;;
62056;SDS011;48016;50.284;18.860;2022-11-06T01:38:41;19.60;;;10.40;;
62056;SDS011;48016;50.284;18.860;2022-11-06T01:41:12;18.40;;;10.10;;
62056;SDS011;48016;50.284;18.860;2022-11-06T01:46:59;19.50;;;9.80;;
62056;SDS011;48016;50.284;18.860;2022-11-06T01:49:28;18.90;;;10.20;;
62056;SDS011;48016;50.284;18.860;2022-11-06T01:52:03;19.60;;;10.50;;
62056;SDS011;48016;50.284;18.860;2022-11-06T01:54:33;17.70;;;10.50;;
62056;SDS011;48016;50.284;18.860;2022-11-06T01:57:02;20.10;;;10.60;;
62056;SDS011;48016;50.284;18.860;2022-11-06T01:59:30;24.60;;;12.10;;
62056;SDS011;48016;50.284;18.860;2022-11-06T02:02:00;20.90;;;10.80;;
62056;SDS011;48016;50.284;18.860;2022-11-06T02:04:46;24.90;;;12.10;;
62056;SDS011;48016;50.284;18.860;2022-11-06T02:07:14;22.30;;;10.90;;
62056;SDS011;48016;50.284;18.860;2022-11-06T02:09:44;22.20;;;12.00;;
62056;SDS011;48016;50.284;18.860;2022-11-06T02:17:56;19.50;;;11.50;;
62056;SDS011;48016;50.284;18.860;2022-11-06T02:20:35;22.70;;;11.50;;
62056;SDS011;48016;50.284;18.860;2022-11-06T02:28:49;16.90;;;10.40;;
62056;SDS011;48016;50.284;18.860;2022-11-06T02:31:34;23.40;;;12.50;;
62056;SDS011;48016;50.284;18.860;2022-11-06T02:34:04;24.80;;;12.00;;
62056;SDS011;48016;50.284;18.860;2022-11-06T02:36:38;21.00;;;12.00;;
62056;SDS011;48016;50.284;18.860;2022-11-06T02:39:10;19.90;;;12.40;;
62056;SDS011;48016;50.284;18.860;2022-11-06T02:41:42;23.10;;;11.40;;
62056;SDS011;48016;50.284;18.860;2022-11-06T02:44:13;21.80;;;12.70;;
62056;SDS011;48016;50.284;18.860;2022-11-06T02:46:48;22.20;;;12.00;;
62056;SDS011;48016;50.284;18.860;2022-11-06T02:49:33;16.80;;;11.00;;
62056;SDS011;48016;50.284;18.860;2022-11-06T02:52:18;19.40;;;10.50;;
62056;SDS011;48016;50.284;18.860;2022-11-06T02:54:54;24.80;;;13.40;;
62056;SDS011;48016;50.284;18.860;2022-11-06T02:57:24;24.00;;;11.70;;
62056;SDS011;48016;50.284;18.860;2022-11-06T03:05:35;20.50;;;11.10;;
62056;SDS011;48016;50.284;18.860;2022-11-06T03:19:06;23.50;;;12.00;;
62056;SDS011;48016;50.284;18.860;2022-11-06T03:24:30;20.70;;;11.30;;
62056;SDS011;48016;50.284;18.860;2022-11-06T03:27:06;18.90;;;11.60;;
62056;SDS011;48016;50.284;18.860;2022-11-06T03:29:46;21.60;;;11.80;;
62056;SDS011;48016;50.284;18.860;2022-11-06T03:32:31;19.90;;;11.90;;
62056;SDS011;48016;50.284;18.860;2022-11-06T03:38:02;20.00;;;12.40;;
62056;SDS011;48016;50.284;18.860;2022-11-06T03:40:41;23.20;;;11.80;;
62056;SDS011;48016;50.284;18.860;2022-11-06T03:43:13;19.70;;;11.90;;
62056;SDS011;48016;50.284;18.860;2022-11-06T03:45:43;23.60;;;12.20;;
62056;SDS011;48016;50.284;18.860;2022-11-06T03:50:46;22.70;;;12.80;;
62056;SDS011;48016;50.284;18.860;2022-11-06T03:53:27;26.70;;;13.40;;
62056;SDS011;48016;50.284;18.860;2022-11-06T03:56:27;21.70;;;12.70;;
62056;SDS011;48016;50.284;18.860;2022-11-06T03:59:03;23.10;;;12.10;;
62056;SDS011;48016;50.284;18.860;2022-11-06T04:01:35;24.00;;;13.10;;
62056;SDS011;48016;50.284;18.860;2022-11-06T04:04:18;22.50;;;13.00;;
62056;SDS011;48016;50.284;18.860;2022-11-06T04:07:04;26.30;;;13.20;;
62056;SDS011;48016;50.284;18.860;2022-11-06T04:09:36;24.30;;;13.40;;
62056;SDS011;48016;50.284;18.860;2022-11-06T04:12:26;25.70;;;13.40;;
62056;SDS011;48016;50.284;18.860;2022-11-06T04:15:15;24.30;;;13.40;;
62056;SDS011;48016;50.284;18.860;2022-11-06T04:17:44;30.70;;;14.20;;
62056;SDS011;48016;50.284;18.860;2022-11-06T04:20:12;30.80;;;14.50;;
62056;SDS011;48016;50.284;18.860;2022-11-06T04:23:17;32.10;;;15.50;;
62056;SDS011;48016;50.284;18.860;2022-11-06T04:28:58;26.60;;;13.70;;
62056;SDS011;48016;50.284;18.860;2022-11-06T04:37:20;27.50;;;16.00;;
62056;SDS011;48016;50.284;18.860;2022-11-06T04:42:48;36.30;;;15.80;;
62056;SDS011;48016;50.284;18.860;2022-11-06T04:45:22;34.20;;;15.60;;
62056;SDS011;48016;50.284;18.860;2022-11-06T04:47:51;40.90;;;17.00;;
62056;SDS011;48016;50.284;18.860;2022-11-06T04:50:21;36.10;;;16.80;;
62056;SDS011;48016;50.284;18.860;2022-11-06T04:52:49;35.30;;;16.90;;
62056;SDS011;48016;50.284;18.860;2022-11-06T04:55:17;33.80;;;15.00;;
62056;SDS011;48016;50.284;18.860;2022-11-06T04:57:46;30.70;;;14.30;;
62056;SDS011;48016;50.284;18.860;2022-11-06T05:00:13;26.80;;;13.60;;
62056;SDS011;48016;50.284;18.860;2022-11-06T05:02:42;24.60;;;12.80;;
62056;SDS011;48016;50.284;18.860;2022-11-06T05:05:08;25.80;;;14.00;;
62056;SDS011;48016;50.284;18.860;2022-11-06T05:07:35;23.70;;;12.60;;
62056;SDS011;48016;50.284;18.860;2022-11-06T05:10:02;25.30;;;12.60;;
62056;SDS011;48016;50.284;18.860;2022-11-06T05:12:30;23.90;;;12.30;;
62056;SDS011;48016;50.284;18.860;2022-11-06T05:14:56;23.00;;;12.50;;
62056;SDS011;48016;50.284;18.860;2022-11-06T05:17:23;20.10;;;11.30;;
62056;SDS011;48016;50.284;18.860;2022-11-06T05:19:49;18.90;;;11.70;;
62056;SDS011;48016;50.284;18.860;2022-11-06T05:22:16;19.80;;;11.30;;
62056;SDS011;48016;50.284;18.860;2022-11-06T05:25:02;24.50;;;11.80;;
62056;SDS011;48016;50.284;18.860;2022-11-06T05:27:29;21.90;;;11.30;;
62056;SDS011;48016;50.284;18.860;2022-11-06T05:29:55;21.80;;;11.70;;
62056;SDS011;48016;50.284;18.860;2022-11-06T05:32:22;20.30;;;11.50;;
62056;SDS011;48016;50.284;18.860;2022-11-06T05:34:49;19.50;;;10.80;;
62056;SDS011;48016;50.284;18.860;2022-11-06T05:37:15;18.10;;;10.00;;
62056;SDS011;48016;50.284;18.860;2022-11-06T05:39:42;21.10;;;12.30;;
62056;SDS011;48016;50.284;18.860;2022-11-06T05:42:09;18.90;;;11.30;;
62056;SDS011;48016;50.284;18.860;2022-11-06T05:44:35;20.50;;;12.40;;
62056;SDS011;48016;50.284;18.860;2022-11-06T05:47:03;19.60;;;10.80;;
62056;SDS011;48016;50.284;18.860;2022-11-06T05:49:29;19.10;;;12.10;;
62056;SDS011;48016;50.284;18.860;2022-11-06T05:51:56;20.10;;;11.30;;
62056;SDS011;48016;50.284;18.860;2022-11-06T05:54:23;18.60;;;10.80;;
62056;SDS011;48016;50.284;18.860;2022-11-06T05:56:50;18.20;;;10.30;;
62056;SDS011;48016;50.284;18.860;2022-11-06T05:59:17;18.90;;;11.30;;
62056;SDS011;48016;50.284;18.860;2022-11-06T06:01:44;20.70;;;10.40;;
62056;SDS011;48016;50.284;18.860;2022-11-06T06:04:13;20.90;;;11.20;;
62056;SDS011;48016;50.284;18.860;2022-11-06T06:06:39;21.00;;;11.20;;
62056;SDS011;48016;50.284;18.860;2022-11-06T06:09:06;19.80;;;11.10;;
62056;SDS011;48016;50.284;18.860;2022-11-06T06:11:33;19.20;;;10.60;;
62056;SDS011;48016;50.284;18.860;2022-11-06T06:14:00;12.00;;;14.40;;
62056;SDS011;48016;50.284;18.860;2022-11-06T06:16:27;20.60;;;11.60;;
62056;SDS011;48016;50.284;18.860;2022-11-06T06:18:54;18.30;;;11.00;;
62056;SDS011;48016;50.284;18.860;2022-11-06T06:21:20;20.40;;;10.90;;
62056;SDS011;48016;50.284;18.860;2022-11-06T06:23:47;21.30;;;11.00;;
62056;SDS011;48016;50.284;18.860;2022-11-06T06:26:14;22.40;;;11.80;;
62056;SDS011;48016;50.284;18.860;2022-11-06T06:28:41;20.80;;;12.50;;
62056;SDS011;48016;50.284;18.860;2022-11-06T06:31:07;24.90;;;11.80;;
62056;SDS011;48016;50.284;18.860;2022-11-06T06:33:35;26.40;;;14.10;;
62056;SDS011;48016;50.284;18.860;2022-11-06T06:36:03;27.40;;;14.20;;
62056;SDS011;48016;50.284;18.860;2022-11-06T06:38:31;36.00;;;17.00;;
62056;SDS011;48016;50.284;18.860;2022-11-06T06:41:01;48.00;;;23.90;;
62056;SDS011;48016;50.284;18.860;2022-11-06T06:43:29;44.00;;;22.90;;
62056;SDS011;48016;50.284;18.860;2022-11-06T06:45:57;43.60;;;22.30;;
62056;SDS011;48016;50.284;18.860;2022-11-06T06:48:30;44.20;;;22.50;;
62056;SDS011;48016;50.284;18.860;2022-11-06T06:51:01;42.70;;;21.70;;
62056;SDS011;48016;50.284;18.860;2022-11-06T06:53:28;35.60;;;20.90;;
62056;SDS011;48016;50.284;18.860;2022-11-06T06:56:00;36.90;;;20.80;;
62056;SDS011;48016;50.284;18.860;2022-11-06T06:58:30;39.80;;;20.70;;
62056;SDS011;48016;50.284;18.860;2022-11-06T07:00:58;35.40;;;19.30;;
62056;SDS011;48016;50.284;18.860;2022-11-06T07:03:29;35.40;;;18.80;;
62056;SDS011;48016;50.284;18.860;2022-11-06T07:05:57;32.70;;;21.30;;
62056;SDS011;48016;50.284;18.860;2022-11-06T07:08:24;40.10;;;23.40;;
62056;SDS011;48016;50.284;18.860;2022-11-06T07:10:57;49.00;;;24.90;;
62056;SDS011;48016;50.284;18.860;2022-11-06T07:13:24;46.80;;;27.30;;
62056;SDS011;48016;50.284;18.860;2022-11-06T07:15:51;43.30;;;24.20;;
62056;SDS011;48016;50.284;18.860;2022-11-06T07:18:17;37.60;;;21.80;;
62056;SDS011;48016;50.284;18.860;2022-11-06T07:20:44;62.40;;;32.90;;
62056;SDS011;48016;50.284;18.860;2022-11-06T07:23:11;65.60;;;33.20;;
62056;SDS011;48016;50.284;18.860;2022-11-06T07:25:38;68.50;;;36.80;;
62056;SDS011;48016;50.284;18.860;2022-11-06T07:28:05;72.10;;;37.50;;
62056;SDS011;48016;50.284;18.860;2022-11-06T07:30:34;60.20;;;33.50;;
62056;SDS011;48016;50.284;18.860;2022-11-06T07:33:02;56.80;;;31.70;;
62056;SDS011;48016;50.284;18.860;2022-11-06T07:35:31;55.10;;;30.40;;
62056;SDS011;48016;50.284;18.860;2022-11-06T07:38:02;50.40;;;26.60;;
62056;SDS011;48016;50.284;18.860;2022-11-06T07:40:32;46.40;;;26.20;;
62056;SDS011;48016;50.284;18.860;2022-11-06T07:45:30;47.80;;;24.70;;
62056;SDS011;48016;50.284;18.860;2022-11-06T07:47:57;47.90;;;25.80;;
62056;SDS011;48016;50.284;18.860;2022-11-06T07:50:25;48.70;;;26.90;;
62056;SDS011;48016;50.284;18.860;2022-11-06T07:52:53;41.30;;;24.00;;
62056;SDS011;48016;50.284;18.860;2022-11-06T07:57:47;41.20;;;22.90;;
62056;SDS011;48016;50.284;18.860;2022-11-06T08:00:14;42.20;;;21.60;;
62056;SDS011;48016;50.284;18.860;2022-11-06T08:02:42;34.80;;;21.80;;
62056;SDS011;48016;50.284;18.860;2022-11-06T08:05:09;46.50;;;25.80;;
62056;SDS011;48016;50.284;18.860;2022-11-06T08:07:35;35.60;;;22.40;;
62056;SDS011;48016;50.284;18.860;2022-11-06T08:10:02;39.20;;;23.80;;
62056;SDS011;48016;50.284;18.860;2022-11-06T08:14:56;51.90;;;31.20;;
62056;SDS011;48016;50.284;18.860;2022-11-06T08:17:24;61.80;;;37.60;;
62056;SDS011;48016;50.284;18.860;2022-11-06T08:19:51;77.70;;;46.90;;
62056;SDS011;48016;50.284;18.860;2022-11-06T08:22:17;71.60;;;41.90;;
62056;SDS011;48016;50.284;18.860;2022-11-06T08:24:44;42.60;;;25.10;;
62056;SDS011;48016;50.284;18.860;2022-11-06T08:27:11;35.00;;;18.50;;
62056;SDS011;48016;50.284;18.860;2022-11-06T08:29:37;31.10;;;17.10;;
62056;SDS011;48016;50.284;18.860;2022-11-06T08:32:04;33.50;;;18.40;;
62056;SDS011;48016;50.284;18.860;2022-11-06T08:34:32;32.80;;;18.40;;
62056;SDS011;48016;50.284;18.860;2022-11-06T08:37:01;34.90;;;18.60;;
62056;SDS011;48016;50.284;18.860;2022-11-06T08:39:28;36.10;;;19.60;;
62056;SDS011;48016;50.284;18.860;2022-11-06T08:41:55;29.10;;;18.10;;
62056;SDS011;48016;50.284;18.860;2022-11-06T08:44:22;34.60;;;19.00;;
62056;SDS011;48016;50.284;18.860;2022-11-06T08:49:16;37.70;;;19.30;;
62056;SDS011;48016;50.284;18.860;2022-11-06T08:51:43;39.10;;;21.30;;
62056;SDS011;48016;50.284;18.860;2022-11-06T08:54:12;37.50;;;21.60;;
62056;SDS011;48016;50.284;18.860;2022-11-06T08:56:39;36.40;;;19.30;;
62056;SDS011;48016;50.284;18.860;2022-11-06T08:59:06;37.20;;;19.90;;
62056;SDS011;48016;50.284;18.860;2022-11-06T09:01:32;37.90;;;19.50;;
62056;SDS011;48016;50.284;18.860;2022-11-06T09:03:59;42.00;;;21.30;;
62056;SDS011;48016;50.284;18.860;2022-11-06T09:06:26;37.70;;;20.90;;
62056;SDS011;48016;50.284;18.860;2022-11-06T09:08:53;39.90;;;20.70;;
62056;SDS011;48016;50.284;18.860;2022-11-06T09:13:47;42.60;;;22.60;;
62056;SDS011;48016;50.284;18.860;2022-11-06T09:16:13;50.40;;;28.10;;
62056;SDS011;48016;50.284;18.860;2022-11-06T09:18:40;57.60;;;30.00;;
62056;SDS011;48016;50.284;18.860;2022-11-06T09:21:07;60.10;;;31.80;;
62056;SDS011;48016;50.284;18.860;2022-11-06T09:23:34;55.90;;;31.10;;
62056;SDS011;48016;50.284;18.860;2022-11-06T09:26:01;51.90;;;29.10;;
62056;SDS011;48016;50.284;18.860;2022-11-06T09:28:27;59.10;;;31.20;;
62056;SDS011;48016;50.284;18.860;2022-11-06T09:30:54;63.20;;;34.80;;
62056;SDS011;48016;50.284;18.860;2022-11-06T09:33:21;62.00;;;33.70;;
62056;SDS011;48016;50.284;18.860;2022-11-06T09:35:48;60.10;;;32.40;;
62056;SDS011;48016;50.284;18.860;2022-11-06T09:38:14;48.50;;;27.40;;
62056;SDS011;48016;50.284;18.860;2022-11-06T09:40:43;47.90;;;26.00;;
62056;SDS011;48016;50.284;18.860;2022-11-06T09:45:42;40.60;;;22.70;;
62056;SDS011;48016;50.284;18.860;2022-11-06T09:50:55;43.70;;;23.50;;
62056;SDS011;48016;50.284;18.860;2022-11-06T09:53:44;42.20;;;21.70;;
62056;SDS011;48016;50.284;18.860;2022-11-06T09:56:16;42.70;;;24.50;;
62056;SDS011;48016;50.284;18.860;2022-11-06T09:58:47;42.40;;;22.80;;
62056;SDS011;48016;50.284;18.860;2022-11-06T10:01:22;43.90;;;25.40;;
62056;SDS011;48016;50.284;18.860;2022-11-06T10:03:53;44.00;;;23.00;;
62056;SDS011;48016;50.284;18.860;2022-11-06T10:06:23;50.30;;;27.50;;
62056;SDS011;48016;50.284;18.860;2022-11-06T10:08:51;48.50;;;26.10;;
62056;SDS011;48016;50.284;18.860;2022-11-06T10:30:14;54.20;;;29.30;;
62056;SDS011;48016;50.284;18.860;2022-11-06T10:33:06;51.30;;;27.70;;
62056;SDS011;48016;50.284;18.860;2022-11-06T10:35:45;56.60;;;27.50;;
62056;SDS011;48016;50.284;18.860;2022-11-06T10:38:36;51.10;;;26.80;;
62056;SDS011;48016;50.284;18.860;2022-11-06T10:41:13;56.50;;;27.50;;
62056;SDS011;48016;50.284;18.860;2022-11-06T10:44:01;52.10;;;28.70;;
62056;SDS011;48016;50.284;18.860;2022-11-06T10:46:41;51.10;;;28.50;;
62056;SDS011;48016;50.284;18.860;2022-11-06T10:57:22;51.60;;;27.90;;
62056;SDS011;48016;50.284;18.860;2022-11-06T11:00:09;51.50;;;28.90;;
62056;SDS011;48016;50.284;18.860;2022-11-06T11:02:47;56.90;;;29.70;;
62056;SDS011;48016;50.284;18.860;2022-11-06T11:05:19;53.20;;;29.00;;
62056;SDS011;48016;50.284;18.860;2022-11-06T11:07:49;53.00;;;29.10;;
62056;SDS011;48016;50.284;18.860;2022-11-06T11:10:26;59.50;;;31.30;;
62056;SDS011;48016;50.284;18.860;2022-11-06T11:12:58;61.90;;;34.30;;
62056;SDS011;48016;50.284;18.860;2022-11-06T11:15:47;56.20;;;30.00;;
62056;SDS011;48016;50.284;18.860;2022-11-06T11:18:16;51.70;;;29.40;;
62056;SDS011;48016;50.284;18.860;2022-11-06T11:20:45;53.90;;;28.30;;
62056;SDS011;48016;50.284;18.860;2022-11-06T11:23:21;57.00;;;30.70;;
62056;SDS011;48016;50.284;18.860;2022-11-06T11:25:50;52.60;;;29.20;;
62056;SDS011;48016;50.284;18.860;2022-11-06T11:28:32;49.40;;;28.40;;
62056;SDS011;48016;50.284;18.860;2022-11-06T11:31:09;53.30;;;29.30;;
62056;SDS011;48016;50.284;18.860;2022-11-06T11:33:46;46.00;;;28.50;;
62056;SDS011;48016;50.284;18.860;2022-11-06T11:38:45;51.20;;;27.60;;
62056;SDS011;48016;50.284;18.860;2022-11-06T11:41:13;50.60;;;26.60;;
62056;SDS011;48016;50.284;18.860;2022-11-06T11:44:22;49.20;;;28.20;;
62056;SDS011;48016;50.284;18.860;2022-11-06T11:49:29;50.50;;;26.40;;
62056;SDS011;48016;50.284;18.860;2022-11-06T11:52:00;47.70;;;26.30;;
62056;SDS011;48016;50.284;18.860;2022-11-06T11:54:31;43.80;;;24.30;;
62056;SDS011;48016;50.284;18.860;2022-11-06T11:57:04;43.80;;;25.60;;
62056;SDS011;48016;50.284;18.860;2022-11-06T11:59:40;51.80;;;28.10;;
62056;SDS011;48016;50.284;18.860;2022-11-06T12:02:21;48.80;;;27.30;;
62056;SDS011;48016;50.284;18.860;2022-11-06T12:04:58;43.10;;;26.20;;
62056;SDS011;48016;50.284;18.860;2022-11-06T12:07:29;46.70;;;27.40;;
62056;SDS011;48016;50.284;18.860;2022-11-06T12:09:59;44.70;;;23.90;;
62056;SDS011;48016;50.284;18.860;2022-11-06T12:12:33;44.20;;;24.00;;
62056;SDS011;48016;50.284;18.860;2022-11-06T12:17:56;39.10;;;21.40;;
62056;SDS011;48016;50.284;18.860;2022-11-06T12:20:48;37.90;;;21.50;;
62056;SDS011;48016;50.284;18.860;2022-11-06T12:23:27;31.40;;;18.90;;
62056;SDS011;48016;50.284;18.860;2022-11-06T12:32:14;46.70;;;25.90;;
62056;SDS011;48016;50.284;18.860;2022-11-06T12:34:48;47.30;;;26.70;;
62056;SDS011;48016;50.284;18.860;2022-11-06T12:37:50;49.50;;;27.10;;
62056;SDS011;48016;50.284;18.860;2022-11-06T12:40:44;46.90;;;26.20;;
62056;SDS011;48016;50.284;18.860;2022-11-06T12:43:39;47.80;;;26.40;;
62056;SDS011;48016;50.284;18.860;2022-11-06T12:46:12;42.50;;;26.00;;
62056;SDS011;48016;50.284;18.860;2022-11-06T13:00:34;42.20;;;23.60;;
62056;SDS011;48016;50.284;18.860;2022-11-06T13:03:08;48.40;;;26.10;;
62056;SDS011;48016;50.284;18.860;2022-11-06T13:05:59;43.00;;;24.00;;
62056;SDS011;48016;50.284;18.860;2022-11-06T13:11:31;50.20;;;26.60;;
62056;SDS011;48016;50.284;18.860;2022-11-06T13:16:59;49.40;;;26.40;;
62056;SDS011;48016;50.284;18.860;2022-11-06T13:22:15;37.60;;;23.60;;
62056;SDS011;48016;50.284;18.860;2022-11-06T13:27:51;38.30;;;22.40;;
62056;SDS011;48016;50.284;18.860;2022-11-06T13:30:21;41.90;;;23.30;;
62056;SDS011;48016;50.284;18.860;2022-11-06T13:35:24;35.00;;;19.10;;
62056;SDS011;48016;50.284;18.860;2022-11-06T13:37:52;28.90;;;18.10;;
62056;SDS011;48016;50.284;18.860;2022-11-06T13:40:26;37.60;;;19.30;;
62056;SDS011;48016;50.284;18.860;2022-11-06T13:48:51;14.80;;;8.10;;
62056;SDS011;48016;50.284;18.860;2022-11-06T13:54:16;12.90;;;6.90;;
62056;SDS011;48016;50.284;18.860;2022-11-06T14:07:20;15.90;;;7.20;;
62056;SDS011;48016;50.284;18.860;2022-11-06T14:09:48;15.50;;;9.00;;
62056;SDS011;48016;50.284;18.860;2022-11-06T14:12:19;17.10;;;9.60;;
62056;SDS011;48016;50.284;18.860;2022-11-06T14:14:48;15.90;;;9.40;;
62056;SDS011;48016;50.284;18.860;2022-11-06T14:17:21;19.70;;;10.40;;
62056;SDS011;48016;50.284;18.860;2022-11-06T14:22:22;18.80;;;11.10;;
62056;SDS011;48016;50.284;18.860;2022-11-06T14:24:52;22.10;;;12.90;;
62056;SDS011;48016;50.284;18.860;2022-11-06T14:29:53;20.70;;;13.10;;
62056;SDS011;48016;50.284;18.860;2022-11-06T14:32:53;26.10;;;13.40;;
62056;SDS011;48016;50.284;18.860;2022-11-06T14:35:47;21.00;;;12.10;;
62056;SDS011;48016;50.284;18.860;2022-11-06T14:40:57;21.80;;;13.90;;
62056;SDS011;48016;50.284;18.860;2022-11-06T14:43:25;21.10;;;13.30;;
62056;SDS011;48016;50.284;18.860;2022-11-06T14:48:36;23.40;;;14.10;;
62056;SDS011;48016;50.284;18.860;2022-11-06T14:51:07;27.10;;;15.00;;
62056;SDS011;48016;50.284;18.860;2022-11-06T14:53:37;27.50;;;15.40;;
62056;SDS011;48016;50.284;18.860;2022-11-06T14:56:18;23.40;;;13.40;;
62056;SDS011;48016;50.284;18.860;2022-11-06T14:59:13;22.40;;;12.90;;
62056;SDS011;48016;50.284;18.860;2022-11-06T15:02:04;30.20;;;13.10;;
62056;SDS011;48016;50.284;18.860;2022-11-06T15:04:42;25.80;;;13.70;;
62056;SDS011;48016;50.284;18.860;2022-11-06T15:13:24;33.90;;;18.60;;
62056;SDS011;48016;50.284;18.860;2022-11-06T15:15:57;32.20;;;17.70;;
62056;SDS011;48016;50.284;18.860;2022-11-06T15:18:29;35.20;;;19.40;;
62056;SDS011;48016;50.284;18.860;2022-11-06T15:21:02;37.40;;;18.40;;
62056;SDS011;48016;50.284;18.860;2022-11-06T15:23:37;35.30;;;16.30;;
62056;SDS011;48016;50.284;18.860;2022-11-06T15:26:26;36.20;;;20.20;;
62056;SDS011;48016;50.284;18.860;2022-11-06T15:31:25;34.40;;;19.00;;
62056;SDS011;48016;50.284;18.860;2022-11-06T15:36:27;33.80;;;18.10;;
62056;SDS011;48016;50.284;18.860;2022-11-06T15:38:58;32.40;;;17.70;;
62056;SDS011;48016;50.284;18.860;2022-11-06T15:41:25;31.70;;;18.10;;
62056;SDS011;48016;50.284;18.860;2022-11-06T15:43:53;28.30;;;16.00;;
62056;SDS011;48016;50.284;18.860;2022-11-06T15:48:48;31.60;;;16.30;;
62056;SDS011;48016;50.284;18.860;2022-11-06T15:51:55;33.80;;;17.90;;
62056;SDS011;48016;50.284;18.860;2022-11-06T15:54:29;28.80;;;17.60;;
62056;SDS011;48016;50.284;18.860;2022-11-06T15:56:56;30.20;;;17.00;;
62056;SDS011;48016;50.284;18.860;2022-11-06T15:59:25;28.10;;;17.00;;
62056;SDS011;48016;50.284;18.860;2022-11-06T16:01:52;29.30;;;17.50;;
62056;SDS011;48016;50.284;18.860;2022-11-06T16:04:20;26.60;;;17.00;;
62056;SDS011;48016;50.284;18.860;2022-11-06T16:06:53;32.10;;;17.00;;
62056;SDS011;48016;50.284;18.860;2022-11-06T16:09:22;27.90;;;16.50;;
62056;SDS011;48016;50.284;18.860;2022-11-06T16:11:51;29.90;;;15.40;;
62056;SDS011;48016;50.284;18.860;2022-11-06T16:16:47;31.30;;;16.70;;
62056;SDS011;48016;50.284;18.860;2022-11-06T16:19:25;27.80;;;15.20;;
62056;SDS011;48016;50.284;18.860;2022-11-06T16:27:24;22.80;;;11.40;;
62056;SDS011;48016;50.284;18.860;2022-11-06T16:29:54;21.90;;;11.30;;
62056;SDS011;48016;50.284;18.860;2022-11-06T16:32:24;20.00;;;11.90;;
62056;SDS011;48016;50.284;18.860;2022-11-06T16:34:53;23.40;;;12.80;;
62056;SDS011;48016;50.284;18.860;2022-11-06T16:37:31;19.80;;;12.60;;
62056;SDS011;48016;50.284;18.860;2022-11-06T16:40:01;22.10;;;12.40;;
62056;SDS011;48016;50.284;18.860;2022-11-06T16:42:28;22.00;;;12.30;;
62056;SDS011;48016;50.284;18.860;2022-11-06T16:47:33;22.70;;;13.00;;
62056;SDS011;48016;50.284;18.860;2022-11-06T16:50:00;20.00;;;11.50;;
62056;SDS011;48016;50.284;18.860;2022-11-06T16:52:33;22.60;;;13.50;;
62056;SDS011;48016;50.284;18.860;2022-11-06T16:57:51;27.40;;;14.40;;
62056;SDS011;48016;50.284;18.860;2022-11-06T17:03:17;29.30;;;15.20;;
62056;SDS011;48016;50.284;18.860;2022-11-06T17:05:52;26.40;;;14.40;;
62056;SDS011;48016;50.284;18.860;2022-11-06T17:08:25;27.40;;;15.10;;
62056;SDS011;48016;50.284;18.860;2022-11-06T17:10:55;27.40;;;14.30;;
62056;SDS011;48016;50.284;18.860;2022-11-06T17:13:28;27.90;;;15.20;;
62056;SDS011;48016;50.284;18.860;2022-11-06T17:15:58;31.70;;;16.50;;
62056;SDS011;48016;50.284;18.860;2022-11-06T17:18:38;30.10;;;16.30;;
62056;SDS011;48016;50.284;18.860;2022-11-06T17:21:16;25.60;;;14.50;;
62056;SDS011;48016;50.284;18.860;2022-11-06T17:23:45;29.40;;;14.50;;
62056;SDS011;48016;50.284;18.860;2022-11-06T17:26:15;29.00;;;16.30;;
62056;SDS011;48016;50.284;18.860;2022-11-06T17:31:10;33.80;;;19.20;;
62056;SDS011;48016;50.284;18.860;2022-11-06T17:33:39;32.30;;;18.30;;
62056;SDS011;48016;50.284;18.860;2022-11-06T17:36:26;38.60;;;21.60;;
62056;SDS011;48016;50.284;18.860;2022-11-06T17:38:56;41.80;;;24.40;;
62056;SDS011;48016;50.284;18.860;2022-11-06T17:41:24;42.00;;;23.30;;
62056;SDS011;48016;50.284;18.860;2022-11-06T17:44:01;45.40;;;25.90;;
62056;SDS011;48016;50.284;18.860;2022-11-06T17:46:34;39.70;;;22.20;;
62056;SDS011;48016;50.284;18.860;2022-11-06T17:49:04;44.90;;;24.40;;
62056;SDS011;48016;50.284;18.860;2022-11-06T17:51:31;48.10;;;27.40;;
62056;SDS011;48016;50.284;18.860;2022-11-06T17:54:22;50.30;;;28.00;;
62056;SDS011;48016;50.284;18.860;2022-11-06T17:56:53;47.70;;;26.60;;
62056;SDS011;48016;50.284;18.860;2022-11-06T17:59:22;45.00;;;24.90;;
62056;SDS011;48016;50.284;18.860;2022-11-06T18:01:49;44.10;;;23.90;;
62056;SDS011;48016;50.284;18.860;2022-11-06T18:04:17;46.80;;;26.40;;